Time;durP1;ratioP1;P1;durP2;ratioP2;P2;SDS_P1;SDS_P2;PMS_P1;PMS_P2;Temp;Humidity;BMP_temperature;BMP_pressure;BME280_temperature;BME280_humidity;BME280_pressure;Samples;Min_cycle;Max_cycle;Signal;HPM_P1;HPM_P2
2021/06/27 00:00:21;;;;;;;10.40;8.93;;;16.70;95.00;;;;;;4998308;28;20239;-89
2021/06/27 00:02:47;;;;;;;9.50;8.55;;;16.70;95.10;;;;;;4998379;28;20538;-88
2021/06/27 00:05:16;;;;;;;10.65;9.00;;;16.70;95.20;;;;;;5000048;28;20605;-88
2021/06/27 00:07:44;;;;;;;10.57;8.68;;;16.70;95.30;;;;;;5000301;28;20196;-88
2021/06/27 00:10:13;;;;;;;10.13;8.82;;;16.70;95.30;;;;;;4995842;28;20231;-89
2021/06/27 00:12:43;;;;;;;11.55;9.88;;;16.60;95.30;;;;;;4996903;28;20203;-88
2021/06/27 00:15:15;;;;;;;9.68;8.68;;;16.50;95.60;;;;;;4999735;28;20228;-88
2021/06/27 00:17:42;;;;;;;10.52;9.52;;;16.50;95.70;;;;;;5000386;28;20203;-88
2021/06/27 00:20:11;;;;;;;10.45;9.27;;;16.50;96.00;;;;;;4999034;28;20238;-89
2021/06/27 00:22:38;;;;;;;10.77;9.68;;;16.50;95.90;;;;;;4987768;28;20215;-88
2021/06/27 00:31:57;;;;;;;11.35;8.32;;;16.30;96.10;;;;;;4987357;28;20215;-88
2021/06/27 00:34:24;;;;;;;9.45;8.38;;;16.20;96.50;;;;;;4999898;28;20246;-88
2021/06/27 00:36:50;;;;;;;10.00;9.00;;;16.20;96.80;;;;;;5000306;28;20233;-88
2021/06/27 00:39:17;;;;;;;10.25;9.25;;;16.20;97.20;;;;;;4999171;28;20227;-88
2021/06/27 00:41:44;;;;;;;10.02;8.80;;;16.30;97.10;;;;;;4994032;28;20302;-88
2021/06/27 00:44:11;;;;;;;8.98;8.07;;;16.30;96.80;;;;;;5000493;28;20231;-89
2021/06/27 00:46:38;;;;;;;9.60;7.93;;;16.20;97.00;;;;;;4998497;28;20208;-88
2021/06/27 00:49:06;;;;;;;10.40;9.13;;;16.10;96.40;;;;;;5000733;28;20279;-87
2021/06/27 00:51:33;;;;;;;8.93;7.82;;;16.20;96.30;;;;;;5001069;28;20212;-90
2021/06/27 00:54:00;;;;;;;8.80;7.93;;;16.10;96.30;;;;;;5000687;28;20228;-88
2021/06/27 00:56:27;;;;;;;8.13;7.35;;;16.10;96.40;;;;;;5000251;28;20211;-89
2021/06/27 00:58:53;;;;;;;8.73;7.82;;;16.00;96.40;;;;;;4985235;28;20227;-88
2021/06/27 01:01:20;;;;;;;8.18;7.38;;;15.90;96.60;;;;;;4995008;28;20207;-89
2021/06/27 01:03:47;;;;;;;9.45;7.47;;;15.90;97.10;;;;;;4983725;28;20230;-90
2021/06/27 01:06:15;;;;;;;7.93;7.13;;;15.90;97.00;;;;;;4995493;28;20235;-88
2021/06/27 01:08:42;;;;;;;7.57;6.88;;;16.00;96.50;;;;;;4990497;28;20226;-87
2021/06/27 01:11:09;;;;;;;7.40;6.70;;;15.90;96.10;;;;;;4985190;28;20217;-88
2021/06/27 01:13:36;;;;;;;7.00;6.30;;;15.80;95.90;;;;;;4993931;28;20197;-88
2021/06/27 01:16:03;;;;;;;9.02;6.68;;;15.80;95.60;;;;;;4988789;28;20671;-88
2021/06/27 01:18:30;;;;;;;6.65;6.00;;;15.80;95.30;;;;;;4996294;28;20208;-89
2021/06/27 01:20:57;;;;;;;6.07;5.57;;;15.90;95.00;;;;;;4989635;28;20224;-87
2021/06/27 01:23:25;;;;;;;6.78;5.78;;;15.80;94.60;;;;;;4996685;28;20210;-88
2021/06/27 01:25:55;;;;;;;6.32;5.72;;;15.80;94.40;;;;;;4998511;28;20207;-87
2021/06/27 01:28:22;;;;;;;6.78;5.95;;;15.80;94.20;;;;;;4996823;28;20235;-88
2021/06/27 01:30:49;;;;;;;6.70;6.10;;;15.70;94.40;;;;;;4993877;28;20204;-90
2021/06/27 01:33:22;;;;;;;6.03;5.43;;;15.60;94.90;;;;;;4988605;28;20197;-88
2021/06/27 01:35:50;;;;;;;6.47;5.88;;;15.60;94.90;;;;;;4981266;28;20217;-89
2021/06/27 01:38:19;;;;;;;6.50;5.90;;;15.60;95.00;;;;;;4993856;28;20204;-89
2021/06/27 01:40:48;;;;;;;6.20;5.60;;;15.50;95.00;;;;;;4983677;28;20217;-89
2021/06/27 01:43:17;;;;;;;6.55;5.95;;;15.40;95.20;;;;;;4993363;28;20215;-92
2021/06/27 01:45:48;;;;;;;5.85;5.35;;;15.40;95.10;;;;;;4990557;28;20514;-90
2021/06/27 01:48:16;;;;;;;6.03;5.40;;;15.40;95.00;;;;;;4992038;28;20596;-88
2021/06/27 01:50:44;;;;;;;5.40;4.90;;;15.40;95.10;;;;;;4993328;28;20894;-88
2021/06/27 01:53:16;;;;;;;5.68;5.05;;;15.40;95.20;;;;;;4993081;28;20220;-89
2021/06/27 01:55:44;;;;;;;5.65;4.80;;;15.40;95.10;;;;;;4989432;28;20270;-88
2021/06/27 01:58:13;;;;;;;8.20;5.25;;;15.30;94.80;;;;;;4995912;28;20200;-90
2021/06/27 02:00:41;;;;;;;5.47;4.97;;;15.30;94.60;;;;;;4995768;28;20242;-89
2021/06/27 02:03:16;;;;;;;5.45;4.95;;;15.20;94.60;;;;;;4994921;28;20203;-89
2021/06/27 02:05:43;;;;;;;5.47;4.97;;;15.30;94.50;;;;;;4988570;28;20236;-88
2021/06/27 02:08:10;;;;;;;5.93;5.13;;;15.30;94.50;;;;;;4995969;28;20333;-89
2021/06/27 02:10:37;;;;;;;5.90;5.05;;;15.30;94.40;;;;;;4993248;28;20238;-89
2021/06/27 02:13:05;;;;;;;6.20;4.90;;;15.30;94.50;;;;;;4996234;28;20671;-90
2021/06/27 02:15:33;;;;;;;6.53;4.63;;;15.20;94.50;;;;;;4984686;28;20224;-88
2021/06/27 02:18:17;;;;;;;5.80;5.20;;;15.20;94.60;;;;;;4995475;28;20200;-88
2021/06/27 02:20:44;;;;;;;5.20;4.72;;;15.30;94.90;;;;;;4987505;28;20738;-89
2021/06/27 02:23:11;;;;;;;5.10;4.57;;;15.40;94.50;;;;;;4995249;28;20207;-89
2021/06/27 02:25:38;;;;;;;6.25;4.50;;;15.40;94.50;;;;;;4989294;28;20229;-88
2021/06/27 02:28:05;;;;;;;4.70;4.30;;;15.30;94.10;;;;;;4992130;28;20714;-89
2021/06/27 02:30:33;;;;;;;6.43;4.78;;;15.30;94.20;;;;;;4992002;28;20239;-90
2021/06/27 02:33:00;;;;;;;5.07;4.30;;;15.20;94.10;;;;;;4991922;28;20204;-88
2021/06/27 02:35:27;;;;;;;5.18;4.22;;;15.20;94.20;;;;;;4995350;28;20249;-89
2021/06/27 02:37:54;;;;;;;6.07;4.50;;;15.10;94.30;;;;;;4996691;28;20191;-88
2021/06/27 02:40:22;;;;;;;5.60;4.00;;;15.10;94.20;;;;;;4995278;28;20259;-89
2021/06/27 02:42:49;;;;;;;4.75;4.07;;;15.10;94.00;;;;;;4988151;28;20211;-89
2021/06/27 02:45:16;;;;;;;4.70;4.30;;;15.10;93.60;;;;;;4991225;28;20227;-88
2021/06/27 02:47:45;;;;;;;4.55;3.70;;;15.00;93.90;;;;;;4995077;28;20211;-88
2021/06/27 02:50:14;;;;;;;5.22;3.95;;;14.90;93.70;;;;;;4993682;28;20825;-88
2021/06/27 02:52:41;;;;;;;4.75;3.58;;;14.80;93.90;;;;;;4995186;28;20206;-88
2021/06/27 02:55:10;;;;;;;4.72;3.88;;;14.80;93.80;;;;;;4995112;28;20232;-88
2021/06/27 02:57:38;;;;;;;5.20;4.05;;;14.80;94.00;;;;;;4990284;28;20212;-88
2021/06/27 03:00:07;;;;;;;4.72;4.25;;;14.90;93.90;;;;;;4985067;28;20710;-88
2021/06/27 03:02:34;;;;;;;4.13;3.83;;;14.90;93.80;;;;;;4996032;28;20206;-88
2021/06/27 03:05:02;;;;;;;5.85;3.63;;;14.90;94.00;;;;;;4996841;28;20223;-88
2021/06/27 03:07:29;;;;;;;4.40;4.03;;;14.80;94.30;;;;;;4996357;28;20207;-88
2021/06/27 03:09:56;;;;;;;4.45;4.05;;;14.80;94.20;;;;;;4996733;28;20230;-88
2021/06/27 03:12:23;;;;;;;4.25;3.85;;;14.90;94.50;;;;;;4996991;28;20243;-91
2021/06/27 03:14:50;;;;;;;4.75;4.20;;;14.90;94.20;;;;;;4996751;28;20234;-88
2021/06/27 03:17:17;;;;;;;5.72;4.13;;;15.00;94.20;;;;;;4990606;28;20284;-87
2021/06/27 03:19:43;;;;;;;4.13;3.78;;;15.10;94.20;;;;;;4996791;28;20230;-88
2021/06/27 03:22:12;;;;;;;4.20;3.80;;;15.00;93.70;;;;;;4996863;28;20212;-88
2021/06/27 03:24:38;;;;;;;4.32;3.92;;;14.80;93.80;;;;;;4982384;28;20228;-88
2021/06/27 03:27:06;;;;;;;4.60;3.95;;;14.70;94.10;;;;;;4997438;28;20200;-88
2021/06/27 03:29:33;;;;;;;4.07;3.70;;;14.70;94.40;;;;;;4987323;28;20252;-88
2021/06/27 03:32:00;;;;;;;4.90;4.22;;;14.80;94.30;;;;;;4996831;28;20208;-88
2021/06/27 03:34:27;;;;;;;3.70;3.40;;;14.80;94.30;;;;;;4989386;28;20645;-88
2021/06/27 03:37:00;;;;;;;4.07;3.78;;;14.80;94.20;;;;;;5000841;28;20211;-88
2021/06/27 03:39:28;;;;;;;5.57;4.22;;;14.80;93.90;;;;;;4999016;28;20227;-88
2021/06/27 03:41:55;;;;;;;4.95;3.90;;;14.70;93.60;;;;;;5000994;28;20234;-88
2021/06/27 03:44:22;;;;;;;4.50;4.10;;;14.60;93.80;;;;;;4997939;28;20545;-88
2021/06/27 03:46:49;;;;;;;3.97;3.65;;;14.60;94.00;;;;;;4998235;28;20208;-88
2021/06/27 03:49:16;;;;;;;4.55;4.15;;;14.60;94.20;;;;;;4997097;28;20234;-88
2021/06/27 03:51:44;;;;;;;4.40;4.03;;;14.60;94.10;;;;;;4988517;28;20524;-89
2021/06/27 03:54:11;;;;;;;4.45;3.85;;;14.60;94.50;;;;;;4997451;28;20279;-88
2021/06/27 03:56:39;;;;;;;5.32;4.03;;;14.60;94.70;;;;;;4997041;28;20204;-89
2021/06/27 03:59:06;;;;;;;5.22;3.97;;;14.80;94.60;;;;;;4995432;28;20220;-89
2021/06/27 04:01:33;;;;;;;4.38;3.60;;;14.70;94.10;;;;;;4994854;28;20234;-88
2021/06/27 04:04:02;;;;;;;4.55;4.15;;;14.80;94.20;;;;;;4995101;28;20307;-88
2021/06/27 04:06:29;;;;;;;5.22;4.22;;;14.70;94.40;;;;;;4993417;28;20215;-88
2021/06/27 04:08:56;;;;;;;3.90;3.60;;;14.80;94.00;;;;;;4994535;28;20226;-88
2021/06/27 04:11:23;;;;;;;4.40;4.00;;;14.90;93.80;;;;;;4993635;28;20323;-88
2021/06/27 04:13:51;;;;;;;5.75;3.97;;;15.00;93.20;;;;;;4994318;28;20224;-90
2021/06/27 04:16:18;;;;;;;4.75;3.70;;;15.00;93.50;;;;;;4994093;28;20200;-89
2021/06/27 04:18:45;;;;;;;5.18;4.07;;;15.10;93.50;;;;;;4990426;28;20228;-89
2021/06/27 04:21:11;;;;;;;4.70;4.28;;;15.10;93.10;;;;;;4993627;28;20235;-88
2021/06/27 04:23:40;;;;;;;5.00;4.00;;;15.20;93.10;;;;;;4992646;28;20240;-88
2021/06/27 04:26:07;;;;;;;4.35;3.83;;;15.30;93.50;;;;;;4991059;28;20211;-88
2021/06/27 04:28:34;;;;;;;5.05;4.60;;;15.40;93.30;;;;;;4993111;28;20203;-88
2021/06/27 04:31:03;;;;;;;3.70;3.30;;;15.40;92.80;;;;;;4993805;28;20216;-88
2021/06/27 04:33:30;;;;;;;4.20;3.80;;;15.40;92.20;;;;;;4992955;28;20200;-88
2021/06/27 04:35:57;;;;;;;4.70;3.63;;;15.50;91.60;;;;;;4989396;28;20573;-90
2021/06/27 04:38:25;;;;;;;6.25;3.70;;;15.50;91.60;;;;;;4992036;28;20656;-89
2021/06/27 04:40:52;;;;;;;3.95;3.40;;;15.60;91.60;;;;;;4994502;28;20243;-89
2021/06/27 04:43:19;;;;;;;4.28;3.65;;;15.60;90.60;;;;;;4992130;28;20200;-90
2021/06/27 04:45:48;;;;;;;3.55;3.08;;;15.70;90.90;;;;;;4996781;28;20202;-88
2021/06/27 04:48:17;;;;;;;3.47;3.17;;;15.70;90.50;;;;;;4999165;28;20231;-88
2021/06/27 04:50:46;;;;;;;3.22;2.92;;;15.70;90.60;;;;;;4999934;28;20215;-88
2021/06/27 04:53:14;;;;;;;3.33;3.03;;;15.70;91.10;;;;;;4999079;28;20241;-90
2021/06/27 04:55:42;;;;;;;3.10;2.80;;;15.80;91.00;;;;;;5001561;28;20227;-88
2021/06/27 04:58:08;;;;;;;3.10;2.90;;;15.80;90.90;;;;;;5003285;28;20206;-88
2021/06/27 05:00:35;;;;;;;3.47;3.17;;;15.90;90.60;;;;;;5001955;28;20228;-88
2021/06/27 05:03:02;;;;;;;3.30;3.00;;;15.90;90.20;;;;;;4996941;28;20258;-88
2021/06/27 05:05:31;;;;;;;2.60;2.40;;;16.00;90.30;;;;;;5000192;28;20342;-89
2021/06/27 05:07:58;;;;;;;4.53;2.00;;;15.90;85.70;;;;;;4998166;28;20208;-89
2021/06/27 05:10:25;;;;;;;2.30;2.10;;;15.90;82.40;;;;;;4998941;28;20234;-88
2021/06/27 05:12:52;;;;;;;3.53;2.03;;;15.90;82.20;;;;;;4998256;28;20250;-88
2021/06/27 05:15:19;;;;;;;1.90;1.80;;;16.00;83.80;;;;;;5001431;28;20232;-88
2021/06/27 05:17:46;;;;;;;2.38;2.17;;;16.20;81.60;;;;;;5000444;28;20204;-90
2021/06/27 05:20:14;;;;;;;2.08;1.80;;;16.40;83.00;;;;;;5001328;28;20236;-88
2021/06/27 05:22:42;;;;;;;2.65;1.90;;;16.60;80.50;;;;;;5002032;28;20263;-88
2021/06/27 05:25:10;;;;;;;2.30;2.00;;;16.90;78.60;;;;;;5000896;28;20220;-89
2021/06/27 05:27:37;;;;;;;2.08;1.80;;;17.20;78.90;;;;;;4999477;28;20200;-89
2021/06/27 05:30:06;;;;;;;2.15;1.90;;;17.30;76.40;;;;;;4997591;28;20215;-88
2021/06/27 05:32:32;;;;;;;1.70;1.58;;;17.40;75.80;;;;;;5000653;28;20688;-89
2021/06/27 05:34:59;;;;;;;2.40;2.20;;;17.50;71.30;;;;;;4958108;28;1198483;-88
2021/06/27 05:37:26;;;;;;;2.63;1.75;;;17.60;71.50;;;;;;5011192;28;20207;-88
2021/06/27 05:39:54;;;;;;;2.85;1.65;;;17.60;68.30;;;;;;4996101;28;20224;-89
2021/06/27 05:42:21;;;;;;;2.55;1.50;;;17.50;67.70;;;;;;4999703;28;20232;-89
2021/06/27 05:44:48;;;;;;;4.85;1.67;;;17.60;69.60;;;;;;5002675;28;20223;-89
2021/06/27 05:47:15;;;;;;;3.20;1.70;;;17.80;69.90;;;;;;4998581;28;20555;-89
2021/06/27 05:49:42;;;;;;;1.92;1.45;;;18.00;68.40;;;;;;4994911;28;20310;-88
2021/06/27 05:52:09;;;;;;;2.78;1.52;;;18.00;67.60;;;;;;4998758;28;20224;-88
2021/06/27 05:54:36;;;;;;;1.70;1.60;;;17.90;65.80;;;;;;5003470;28;20701;-88
2021/06/27 05:57:09;;;;;;;1.95;1.38;;;17.80;66.70;;;;;;5003457;28;20295;-88
2021/06/27 05:59:35;;;;;;;2.17;1.45;;;17.80;66.70;;;;;;4994140;28;20234;-89
2021/06/27 06:02:02;;;;;;;2.40;1.65;;;18.00;67.50;;;;;;5002527;28;20707;-88
2021/06/27 06:04:29;;;;;;;1.80;1.45;;;18.10;67.00;;;;;;4998957;28;20694;-88
2021/06/27 06:06:56;;;;;;;2.88;1.60;;;18.20;67.50;;;;;;4994287;28;20196;-89
2021/06/27 06:09:23;;;;;;;2.45;1.60;;;18.20;65.30;;;;;;4995078;28;20220;-88
2021/06/27 06:11:50;;;;;;;1.95;1.42;;;18.40;66.30;;;;;;5001711;28;20204;-89
2021/06/27 06:14:18;;;;;;;2.65;1.70;;;18.50;64.70;;;;;;5000589;28;20258;-89
2021/06/27 06:16:46;;;;;;;1.83;1.60;;;18.60;63.20;;;;;;4999808;28;20202;-88
2021/06/27 06:19:13;;;;;;;2.35;1.58;;;18.60;64.40;;;;;;4999915;28;20719;-89
2021/06/27 06:21:40;;;;;;;3.15;1.60;;;18.90;67.00;;;;;;4993026;28;20221;-89
2021/06/27 06:24:08;;;;;;;1.75;1.55;;;19.00;63.80;;;;;;4993307;28;20232;-88
2021/06/27 06:26:35;;;;;;;2.40;1.88;;;19.10;60.40;;;;;;5000745;28;20307;-88
2021/06/27 06:29:03;;;;;;;1.83;1.55;;;19.40;57.50;;;;;;4999182;28;20223;-89
2021/06/27 06:31:32;;;;;;;2.75;1.50;;;19.70;58.40;;;;;;4993327;28;20200;-89
2021/06/27 06:33:59;;;;;;;2.88;1.67;;;20.10;56.00;;;;;;4999208;28;20225;-88
2021/06/27 06:36:36;;;;;;;1.60;1.50;;;20.40;56.20;;;;;;5002429;28;20224;-89
2021/06/27 06:39:04;;;;;;;1.45;1.35;;;20.70;56.50;;;;;;5000872;28;20242;-89
2021/06/27 06:41:31;;;;;;;1.75;1.65;;;20.60;50.80;;;;;;4995982;28;20287;-89
2021/06/27 06:43:58;;;;;;;1.92;1.70;;;20.80;52.50;;;;;;4994463;28;20688;-90
2021/06/27 06:46:25;;;;;;;1.63;1.42;;;20.80;52.60;;;;;;5000495;28;20200;-86
2021/06/27 06:48:56;;;;;;;1.70;1.60;;;21.00;49.60;;;;;;5002456;28;20238;-86
2021/06/27 06:51:23;;;;;;;1.70;1.60;;;21.00;49.30;;;;;;4993109;28;20222;-86
2021/06/27 06:53:51;;;;;;;1.50;1.40;;;21.20;48.60;;;;;;4997284;28;20244;-90
2021/06/27 06:56:19;;;;;;;1.98;1.60;;;21.20;46.20;;;;;;5000216;28;20214;-86
2021/06/27 06:58:51;;;;;;;1.88;1.67;;;21.10;44.80;;;;;;4985724;28;20227;-86
2021/06/27 07:01:19;;;;;;;1.50;1.40;;;21.00;46.50;;;;;;4997153;28;20228;-87
2021/06/27 07:03:46;;;;;;;1.60;1.50;;;21.10;46.00;;;;;;5002421;28;20278;-88
2021/06/27 07:06:14;;;;;;;1.33;1.27;;;21.10;44.80;;;;;;5002814;28;20203;-88
2021/06/27 07:08:41;;;;;;;1.52;1.42;;;21.20;43.70;;;;;;4999423;28;20231;-88
2021/06/27 07:11:08;;;;;;;1.40;1.30;;;21.10;42.90;;;;;;5003222;28;20212;-89
2021/06/27 07:13:35;;;;;;;1.60;1.50;;;21.30;45.80;;;;;;4993849;28;20209;-89
2021/06/27 07:16:03;;;;;;;2.20;1.77;;;21.50;45.20;;;;;;4994720;28;20267;-87
2021/06/27 07:18:30;;;;;;;1.98;1.83;;;21.70;45.20;;;;;;4991658;28;20214;-89
2021/06/27 07:20:57;;;;;;;2.63;1.45;;;22.00;43.40;;;;;;4991495;28;20212;-91
2021/06/27 07:23:25;;;;;;;2.22;1.70;;;22.10;42.80;;;;;;4997045;28;20239;-90
2021/06/27 07:25:52;;;;;;;2.67;1.65;;;22.30;41.10;;;;;;5001268;28;20282;-87
2021/06/27 07:28:19;;;;;;;1.42;1.33;;;22.30;40.60;;;;;;4995047;28;20275;-89
2021/06/27 07:30:46;;;;;;;3.08;1.60;;;22.20;40.50;;;;;;4991149;28;20223;-87
2021/06/27 07:33:14;;;;;;;1.38;1.27;;;22.20;40.20;;;;;;4995649;28;20196;-87
2021/06/27 07:35:41;;;;;;;1.88;1.40;;;22.10;40.90;;;;;;4999065;28;20255;-87
2021/06/27 07:38:08;;;;;;;3.33;1.55;;;22.10;41.40;;;;;;4999823;28;20215;-86
2021/06/27 07:40:37;;;;;;;1.60;1.50;;;22.10;42.80;;;;;;4999834;28;20270;-87
2021/06/27 07:43:04;;;;;;;3.55;2.13;;;22.20;42.20;;;;;;5001275;28;20769;-86
2021/06/27 07:45:31;;;;;;;1.50;1.40;;;22.20;42.80;;;;;;4999374;28;20250;-86
2021/06/27 07:47:58;;;;;;;1.60;1.50;;;22.20;43.40;;;;;;4997820;28;20208;-87
2021/06/27 07:50:28;;;;;;;3.58;1.73;;;21.70;46.10;;;;;;5001249;28;20223;-87
2021/06/27 07:52:55;;;;;;;1.73;1.63;;;21.20;47.60;;;;;;4997867;28;20196;-87
2021/06/27 07:55:23;;;;;;;1.55;1.45;;;21.60;49.20;;;;;;4997937;28;20231;-90
2021/06/27 07:57:54;;;;;;;2.88;1.50;;;21.80;46.50;;;;;;4994461;28;20208;-87
2021/06/27 08:00:25;;;;;;;2.03;1.80;;;22.00;45.60;;;;;;4992066;28;20228;-88
2021/06/27 08:02:53;;;;;;;1.77;1.50;;;22.10;44.70;;;;;;4988946;28;20220;-89
2021/06/27 08:05:21;;;;;;;1.50;1.40;;;22.10;47.70;;;;;;4990378;28;20292;-87
2021/06/27 08:07:48;;;;;;;1.60;1.50;;;22.30;45.00;;;;;;4993331;28;20204;-87
2021/06/27 08:10:15;;;;;;;2.05;1.58;;;22.60;44.90;;;;;;4996600;28;20228;-89
2021/06/27 08:12:43;;;;;;;2.03;1.58;;;22.70;45.20;;;;;;4994024;28;20192;-90
2021/06/27 08:15:18;;;;;;;1.80;1.70;;;23.00;40.70;;;;;;4989206;28;20231;-87
2021/06/27 08:17:47;;;;;;;1.50;1.40;;;23.40;40.40;;;;;;4993252;28;20195;-85
2021/06/27 08:20:14;;;;;;;1.30;1.20;;;24.30;37.70;;;;;;4996725;28;20223;-88
2021/06/27 08:22:42;;;;;;;1.70;1.20;;;25.30;35.70;;;;;;4996432;28;20231;-88
2021/06/27 08:25:10;;;;;;;1.70;1.60;;;27.40;29.00;;;;;;4997383;28;20591;-86
2021/06/27 08:27:37;;;;;;;1.70;1.60;;;29.80;22.90;;;;;;4986924;28;20204;-86
2021/06/27 08:30:08;;;;;;;1.40;1.30;;;30.40;19.30;;;;;;4983152;28;20224;-86
2021/06/27 08:32:36;;;;;;;1.88;1.60;;;31.60;18.30;;;;;;4989865;28;20246;-87
2021/06/27 08:35:03;;;;;;;1.70;1.60;;;33.30;17.00;;;;;;4993498;28;20302;-87
2021/06/27 08:37:30;;;;;;;1.70;1.60;;;33.70;16.10;;;;;;4990921;28;20202;-88
2021/06/27 08:39:57;;;;;;;3.55;2.00;;;34.00;14.90;;;;;;4990864;28;20235;-88
2021/06/27 08:42:24;;;;;;;2.33;2.15;;;35.10;14.60;;;;;;4994248;28;20227;-88
2021/06/27 08:44:51;;;;;;;2.35;1.98;;;35.20;13.40;;;;;;4995676;28;20223;-87
2021/06/27 08:47:19;;;;;;;2.33;2.17;;;35.40;13.20;;;;;;4987947;28;20210;-85
2021/06/27 08:49:55;;;;;;;2.40;2.20;;;36.90;12.10;;;;;;4995890;28;20686;-85
2021/06/27 08:52:23;;;;;;;2.60;2.40;;;37.40;10.70;;;;;;4998583;28;20209;-90
2021/06/27 08:54:51;;;;;;;2.42;2.22;;;37.20;10.60;;;;;;4993413;28;20231;-85
2021/06/27 08:57:19;;;;;;;2.40;2.30;;;36.60;11.40;;;;;;4992135;28;20204;-86
2021/06/27 08:59:46;;;;;;;2.35;2.25;;;35.90;12.50;;;;;;4996619;28;20595;-85
2021/06/27 09:02:14;;;;;;;2.40;2.30;;;34.30;14.70;;;;;;4993886;28;20219;-88
2021/06/27 09:04:42;;;;;;;17.35;14.20;;;35.00;13.50;;;;;;4995377;28;20231;-86
2021/06/27 09:07:30;;;;;;;17.30;12.50;;;35.40;13.70;;;;;;4989980;28;20199;-86
2021/06/27 09:10:01;;;;;;;2.75;2.55;;;33.80;15.50;;;;;;4989946;28;20228;-87
2021/06/27 09:12:28;;;;;;;2.75;2.65;;;34.20;15.00;;;;;;4995739;28;20207;-87
2021/06/27 09:14:56;;;;;;;2.45;2.35;;;35.20;13.70;;;;;;4995031;28;20231;-88
2021/06/27 09:17:27;;;;;;;2.90;2.70;;;35.40;13.40;;;;;;4991279;28;20239;-87
2021/06/27 09:19:59;;;;;;;3.58;3.28;;;35.50;14.30;;;;;;4999328;28;20231;-88
2021/06/27 09:22:28;;;;;;;3.08;2.88;;;36.00;13.30;;;;;;5000275;28;20813;-86
2021/06/27 09:25:16;;;;;;;5.40;4.90;;;36.30;12.60;;;;;;4990711;28;20228;-87
2021/06/27 09:27:44;;;;;;;4.70;4.03;;;36.30;12.90;;;;;;4990488;28;20204;-89
2021/06/27 09:30:16;;;;;;;16.52;15.25;;;35.90;13.40;;;;;;4986791;28;20360;-85
2021/06/27 09:32:55;;;;;;;3.72;3.50;;;35.00;13.60;;;;;;4992161;28;20203;-89
2021/06/27 09:35:41;;;;;;;3.40;3.08;;;35.70;13.60;;;;;;4996399;28;20219;-88
2021/06/27 09:38:43;;;;;;;5.97;5.47;;;34.10;13.90;;;;;;4990897;28;20207;-89
2021/06/27 09:41:21;;;;;;;3.13;2.92;;;34.20;16.50;;;;;;4927579;29;20236;-86
2021/06/27 09:43:54;;;;;;;2.92;2.75;;;33.60;16.30;;;;;;4978526;28;20233;-85
2021/06/27 09:46:33;;;;;;;2.60;2.50;;;33.20;18.20;;;;;;4988107;28;20207;-85
2021/06/27 09:49:02;;;;;;;3.75;3.35;;;32.80;18.00;;;;;;4990249;28;20237;-90
2021/06/27 09:51:30;;;;;;;27.13;24.92;;;32.20;18.30;;;;;;4988936;28;20207;-86
2021/06/27 09:56:39;;;;;;;2.75;2.50;;;33.30;16.80;;;;;;5283836;23;20226;-84
2021/06/27 09:59:08;;;;;;;2.45;2.25;;;34.00;14.70;;;;;;5030487;28;20618;-84
2021/06/27 10:02:15;;;;;;;4.38;3.42;;;32.20;17.70;;;;;;5024487;28;20198;-85
2021/06/27 10:05:27;;;;;;;5.03;4.65;;;33.40;18.30;;;;;;5024583;28;20669;-84
2021/06/27 10:07:53;;;;;;;2.95;2.80;;;35.40;15.50;;;;;;5025030;28;20183;-84
2021/06/27 10:10:21;;;;;;;3.25;2.90;;;36.10;12.60;;;;;;5025769;28;20183;-84
2021/06/27 10:13:08;;;;;;;4.75;4.35;;;36.40;12.60;;;;;;5025515;28;20198;-86
2021/06/27 10:15:45;;;;;;;5.15;4.85;;;36.90;12.10;;;;;;5023166;28;20253;-88
2021/06/27 10:18:12;;;;;;;3.60;3.30;;;37.30;11.50;;;;;;5018831;28;20203;-87
2021/06/27 10:20:40;;;;;;;3.95;3.65;;;37.00;11.20;;;;;;5023856;28;20223;-89
2021/06/27 10:23:07;;;;;;;4.22;3.88;;;36.90;13.00;;;;;;5023286;28;20222;-87
2021/06/27 10:25:36;;;;;;;4.90;4.60;;;37.40;12.10;;;;;;5024593;28;20222;-88
2021/06/27 10:28:04;;;;;;;3.83;3.63;;;37.20;12.40;;;;;;5019322;28;20203;-89
2021/06/27 10:30:35;;;;;;;3.78;3.58;;;37.30;10.70;;;;;;5024185;28;20314;-90
2021/06/27 10:33:02;;;;;;;5.35;5.05;;;36.20;12.40;;;;;;5023699;28;20206;-86
2021/06/27 10:35:29;;;;;;;3.20;3.00;;;37.20;12.40;;;;;;5027152;28;20251;-87
2021/06/27 10:37:58;;;;;;;3.67;2.40;;;35.20;12.30;;;;;;5023024;28;20293;-87
2021/06/27 10:40:25;;;;;;;5.53;4.50;;;33.00;15.70;;;;;;5020565;28;20226;-86
2021/06/27 10:42:58;;;;;;;4.45;4.15;;;32.90;18.10;;;;;;5017773;28;20231;-85
2021/06/27 10:45:26;;;;;;;2.80;2.60;;;34.20;18.70;;;;;;5015849;28;20257;-90
2021/06/27 10:47:54;;;;;;;6.90;6.40;;;34.50;14.40;;;;;;5018744;28;20202;-87
2021/06/27 10:50:43;;;;;;;2.47;2.38;;;35.10;16.60;;;;;;5017298;28;20313;-90
2021/06/27 10:53:10;;;;;;;2.53;2.42;;;34.30;13.10;;;;;;5017471;28;20215;-86
2021/06/27 10:55:41;;;;;;;7.78;7.00;;;33.80;14.00;;;;;;5015602;28;20286;-87
2021/06/27 10:58:11;;;;;;;10.35;9.57;;;33.80;18.50;;;;;;5013475;28;21163;-88
2021/06/27 11:01:12;;;;;;;14.43;12.95;;;34.20;17.10;;;;;;5012228;28;20985;-86
2021/06/27 11:03:42;;;;;;;5.95;5.55;;;33.60;17.00;;;;;;5011453;28;20230;-86
2021/06/27 11:06:37;;;;;;;3.53;3.33;;;33.90;16.40;;;;;;5013232;28;20203;-86
2021/06/27 11:09:28;;;;;;;3.60;3.40;;;33.50;15.40;;;;;;5010554;28;20230;-87
2021/06/27 11:11:57;;;;;;;2.63;2.17;;;32.80;18.00;;;;;;5006363;28;20207;-89
2021/06/27 11:14:24;;;;;;;2.17;2.08;;;31.70;17.40;;;;;;5007780;28;20673;-89
2021/06/27 11:17:03;;;;;;;2.13;2.03;;;30.90;18.40;;;;;;5013481;28;20210;-89
2021/06/27 11:19:33;;;;;;;3.17;2.03;;;29.70;20.00;;;;;;5011706;28;20709;-86
2021/06/27 11:22:16;;;;;;;2.45;2.25;;;28.90;21.70;;;;;;5014404;28;20214;-88
2021/06/27 11:24:44;;;;;;;3.58;2.00;;;29.10;25.70;;;;;;5017629;28;20313;-88
2021/06/27 11:27:29;;;;;;;1.90;1.80;;;29.30;25.00;;;;;;5008384;28;20200;-86
2021/06/27 11:29:57;;;;;;;2.08;1.90;;;29.50;23.10;;;;;;5015169;28;20240;-87
2021/06/27 11:32:54;;;;;;;2.47;2.33;;;29.50;22.40;;;;;;5024209;28;20678;-86
2021/06/27 11:35:46;;;;;;;4.30;3.90;;;29.10;25.90;;;;;;5016955;28;20218;-88
2021/06/27 11:38:39;;;;;;;2.22;2.13;;;29.10;26.20;;;;;;5015688;28;20202;-85
2021/06/27 11:41:37;;;;;;;3.33;2.00;;;28.90;23.70;;;;;;5009116;28;20216;-88
2021/06/27 11:44:05;;;;;;;1.90;1.80;;;28.70;26.80;;;;;;5010900;28;20263;-88
2021/06/27 11:46:35;;;;;;;5.68;3.08;;;28.20;25.70;;;;;;5008617;28;20203;-86
2021/06/27 11:49:07;;;;;;;2.40;2.20;;;28.30;26.30;;;;;;5007969;28;20240;-90
2021/06/27 11:51:42;;;;;;;2.60;2.40;;;28.40;26.60;;;;;;5009157;28;20203;-88
2021/06/27 11:54:11;;;;;;;2.45;2.20;;;28.30;25.20;;;;;;5010202;28;20230;-88
2021/06/27 11:57:00;;;;;;;3.00;2.20;;;28.40;26.70;;;;;;5010531;28;20207;-88
2021/06/27 11:59:30;;;;;;;2.45;2.25;;;28.70;25.40;;;;;;5018979;28;20274;-88
2021/06/27 12:02:15;;;;;;;3.30;2.00;;;28.70;23.70;;;;;;5006960;28;20210;-89
2021/06/27 12:04:47;;;;;;;1.98;1.88;;;28.70;23.00;;;;;;5011650;28;20625;-86
2021/06/27 12:07:42;;;;;;;2.58;2.15;;;28.30;25.30;;;;;;5015095;28;20288;-87
2021/06/27 12:10:22;;;;;;;3.13;2.03;;;28.30;23.60;;;;;;5007853;28;20214;-86
2021/06/27 12:12:51;;;;;;;3.15;2.85;;;28.40;27.00;;;;;;5032898;28;20201;-87
2021/06/27 12:15:47;;;;;;;2.30;2.10;;;28.50;25.00;;;;;;5006891;28;20628;-86
2021/06/27 12:18:19;;;;;;;2.17;2.08;;;28.60;23.20;;;;;;5017934;28;20214;-85
2021/06/27 12:20:48;;;;;;;3.10;2.90;;;28.60;22.30;;;;;;5008640;28;20227;-87
2021/06/27 12:23:19;;;;;;;2.40;2.20;;;28.60;21.70;;;;;;5000628;28;20230;-89
2021/06/27 12:25:47;;;;;;;2.40;2.13;;;28.60;22.60;;;;;;5010306;28;20218;-86
2021/06/27 12:28:16;;;;;;;2.33;2.05;;;28.20;22.90;;;;;;5006508;28;20661;-87
2021/06/27 12:30:49;;;;;;;3.10;1.95;;;28.10;22.10;;;;;;5006764;28;20227;-88
2021/06/27 12:33:19;;;;;;;3.40;3.10;;;28.30;26.30;;;;;;5002647;28;20431;-88
2021/06/27 12:35:47;;;;;;;2.33;2.13;;;28.50;24.70;;;;;;5012190;28;20219;-87
2021/06/27 12:38:15;;;;;;;3.08;2.75;;;28.70;23.50;;;;;;5012453;28;20199;-87
2021/06/27 12:40:47;;;;;;;5.85;2.78;;;28.70;24.50;;;;;;5011871;28;20337;-89
2021/06/27 12:43:26;;;;;;;5.03;2.40;;;28.90;24.00;;;;;;5009638;28;20225;-90
2021/06/27 12:46:16;;;;;;;2.80;2.53;;;28.80;23.80;;;;;;5009884;28;20222;-85
2021/06/27 12:48:47;;;;;;;2.50;2.30;;;28.90;24.60;;;;;;5009123;28;20237;-86
2021/06/27 12:51:30;;;;;;;4.28;3.95;;;29.00;25.50;;;;;;5001925;28;20194;-88
2021/06/27 12:54:07;;;;;;;4.68;3.42;;;28.80;23.20;;;;;;5008959;28;20612;-88
2021/06/27 12:56:48;;;;;;;2.50;2.30;;;28.70;24.30;;;;;;4999086;28;20265;-89
2021/06/27 12:59:17;;;;;;;2.90;2.60;;;28.60;25.60;;;;;;5019075;28;20222;-89
2021/06/27 13:02:03;;;;;;;2.47;2.28;;;28.50;26.40;;;;;;5014714;28;20199;-90
2021/06/27 13:04:33;;;;;;;4.35;2.25;;;28.60;24.40;;;;;;5012578;28;20301;-90
2021/06/27 13:07:03;;;;;;;3.50;3.30;;;28.40;26.70;;;;;;5014045;28;20646;-89
2021/06/27 13:09:30;;;;;;;2.80;2.60;;;28.30;25.90;;;;;;5017631;28;20223;-88